createdAt,value
2019-04-16T00:00:58.820Z,38.62
2019-04-16T00:03:27.925Z,38.70
2019-04-16T00:05:59.704Z,38.70
2019-04-16T00:08:30.609Z,38.59
2019-04-16T00:11:04.238Z,38.69
2019-04-16T00:13:34.980Z,38.77
2019-04-16T00:16:04.112Z,38.64
2019-04-16T00:18:33.210Z,38.71
2019-04-16T00:21:06.515Z,38.87
2019-04-16T00:23:52.702Z,38.94
2019-04-16T00:26:26.486Z,38.94
2019-04-16T00:28:52.627Z,38.86
2019-04-16T00:31:21.752Z,38.97
2019-04-16T00:33:50.892Z,38.86
2019-04-16T00:36:19.981Z,38.84
2019-04-16T00:38:53.910Z,38.90
2019-04-16T00:41:19.939Z,38.92
2019-04-16T00:43:49.046Z,39.16
2019-04-16T00:46:18.171Z,38.91
2019-04-16T00:48:47.283Z,38.94
2019-04-16T00:51:16.395Z,39.10
2019-04-16T00:53:45.535Z,38.99
2019-04-16T00:56:16.224Z,39.04
2019-04-16T00:58:45.475Z,39.18
2019-04-16T01:01:14.586Z,39.26
2019-04-16T01:03:43.703Z,39.23
2019-04-16T01:06:12.813Z,39.27
2019-04-16T01:08:53.864Z,39.21
2019-04-16T01:11:12.766Z,39.21
2019-04-16T01:13:41.909Z,39.41
2019-04-16T01:16:11.031Z,39.45
2019-04-16T01:18:40.143Z,39.36
2019-04-16T01:21:13.749Z,39.41
2019-04-16T01:23:40.098Z,39.39
2019-04-16T01:26:09.203Z,39.35
2019-04-16T01:28:42.848Z,39.53
2019-04-16T01:31:19.749Z,39.22
2019-04-16T01:33:50.491Z,39.42
2019-04-16T01:36:32.904Z,39.61
2019-04-16T01:39:15.917Z,39.38
2019-04-16T01:41:34.830Z,39.48
2019-04-16T01:44:04.261Z,39.61
2019-04-16T01:46:33.634Z,39.62
2019-04-16T01:49:02.765Z,39.66
2019-04-16T01:51:31.886Z,39.65
2019-04-16T01:54:01.326Z,39.75
2019-04-16T01:56:30.447Z,39.63
2019-04-16T01:58:59.585Z,39.71
2019-04-16T02:01:28.686Z,39.88
2019-04-16T02:03:57.789Z,39.68
2019-04-16T02:06:26.915Z,39.70
2019-04-16T02:08:56.029Z,39.66
2019-04-16T02:11:25.147Z,39.80
2019-04-16T02:13:54.274Z,40.32
2019-04-16T02:16:25.155Z,39.44
2019-04-16T02:18:54.604Z,39.25
2019-04-16T02:21:23.712Z,39.14
2019-04-16T02:23:52.819Z,39.27
2019-04-16T02:26:23.393Z,39.23
2019-04-16T02:28:52.772Z,38.85
2019-04-16T02:31:22.158Z,38.74
2019-04-16T02:33:51.291Z,38.40
2019-04-16T02:36:20.405Z,38.06
2019-04-16T02:38:53.236Z,37.79
2019-04-16T02:41:23.296Z,37.89
2019-04-16T02:43:51.547Z,38.04
2019-04-16T02:46:20.652Z,38.40
2019-04-16T02:48:51.486Z,38.50
2019-04-16T02:51:24.971Z,38.62
2019-04-16T02:54:11.911Z,38.57
2019-04-16T02:56:51.695Z,38.64
2019-04-16T02:59:20.640Z,38.49
2019-04-16T03:02:09.676Z,38.59
2019-04-16T03:04:40.430Z,38.63
2019-04-16T03:07:09.531Z,38.50
2019-04-16T03:09:40.203Z,38.42
2019-04-16T03:12:09.485Z,38.56
2019-04-16T03:14:38.602Z,38.61
2019-04-16T03:17:25.466Z,38.91
2019-04-16T03:19:56.215Z,39.24
2019-04-16T03:22:25.330Z,38.87
2019-04-16T03:24:54.448Z,39.09
2019-04-16T03:27:23.571Z,38.90
2019-04-16T03:29:52.685Z,38.86
2019-04-16T03:32:21.816Z,39.14
2019-04-16T03:34:53.391Z,39.70
2019-04-16T03:37:21.752Z,39.96
2019-04-16T03:39:50.877Z,39.96
2019-04-16T03:42:19.979Z,39.77
2019-04-16T03:44:49.090Z,39.96
2019-04-16T03:47:19.047Z,39.51
2019-04-16T03:49:49.110Z,39.74
2019-04-16T03:52:18.217Z,39.87
2019-04-16T03:54:47.339Z,39.87
2019-04-16T03:57:16.444Z,39.78
2019-04-16T03:59:45.566Z,39.48
2019-04-16T04:02:15.562Z,39.85
2019-04-16T04:04:45.511Z,39.70
2019-04-16T04:07:14.618Z,39.69
2019-04-16T04:09:43.772Z,39.63
2019-04-16T04:12:14.152Z,39.55
2019-04-16T04:14:43.664Z,39.52
2019-04-16T04:17:12.783Z,39.56
2019-04-16T04:19:43.504Z,39.58
2019-04-16T04:22:13.158Z,39.29
2019-04-16T04:24:42.696Z,39.03
2019-04-16T04:27:14.419Z,39.27
2019-04-16T04:29:41.867Z,39.36
2019-04-16T04:32:11.959Z,39.11
2019-04-16T04:34:41.068Z,39.07
2019-04-16T04:37:10.245Z,39.14
2019-04-16T04:39:44.107Z,38.99
2019-04-16T04:42:12.872Z,38.74
2019-04-16T04:45:31.880Z,38.78
2019-04-16T04:47:38.502Z,37.48
2019-04-16T04:59:08.466Z,36.96
2019-04-16T05:04:18.969Z,35.42
2019-04-16T05:06:54.407Z,36.14
2019-04-16T05:09:25.195Z,35.94
2019-04-16T05:12:08.590Z,36.06
2019-04-16T05:14:42.735Z,36.18
2019-04-16T05:17:28.603Z,36.18
2019-04-16T05:20:14.867Z,36.17
2019-04-16T05:22:41.483Z,36.29
2019-04-16T05:25:26.337Z,36.23
2019-04-16T05:28:23.519Z,36.21
2019-04-16T05:30:54.523Z,36.17
2019-04-16T05:33:28.628Z,36.13
2019-04-16T05:35:59.551Z,36.11
2019-04-16T05:38:28.665Z,36.06
2019-04-16T05:41:12.633Z,35.87
2019-04-16T05:43:45.943Z,36.12
2019-04-16T05:46:25.277Z,36.09
2019-04-16T05:49:02.007Z,36.02
2019-04-16T05:51:44.334Z,35.82
2019-04-16T05:54:47.730Z,35.46
2019-04-16T05:57:39.658Z,35.59
2019-04-16T05:59:56.296Z,35.51
2019-04-16T06:02:44.352Z,35.48
2019-04-16T06:05:13.804Z,35.55
2019-04-16T06:07:43.556Z,35.30
2019-04-16T06:10:17.063Z,34.61
2019-04-16T06:13:00.803Z,34.77
2019-04-16T06:15:31.898Z,35.62
2019-04-16T06:18:17.601Z,36.48
2019-04-16T06:20:52.934Z,36.16
2019-04-16T06:23:38.837Z,36.75
2019-04-16T06:26:16.299Z,36.96
2019-04-16T06:29:05.824Z,36.57
2019-04-16T06:32:21.088Z,33.96
2019-04-16T06:37:35.044Z,34.69
2019-04-16T06:46:30.392Z,35.78
2019-04-16T06:55:27.072Z,35.73
2019-04-16T06:58:21.441Z,35.62
2019-04-16T07:01:15.215Z,35.63
2019-04-16T07:07:12.357Z,35.62
2019-04-16T07:09:59.994Z,35.48
2019-04-16T07:12:52.097Z,35.55
2019-04-16T07:15:47.921Z,35.41
2019-04-16T07:24:02.188Z,35.24
2019-04-16T07:26:56.292Z,35.32
2019-04-16T07:32:24.244Z,35.27
2019-04-16T07:34:34.776Z,35.22
2019-04-16T07:35:12.900Z,35.39
2019-04-16T07:38:11.837Z,35.42
2019-04-16T07:40:55.563Z,35.42
2019-04-16T07:43:46.413Z,35.36
2019-04-16T07:46:44.191Z,35.22
2019-04-16T07:52:35.702Z,35.35
2019-04-16T07:55:15.438Z,35.13
2019-04-16T07:57:48.605Z,35.29
2019-04-16T08:00:26.208Z,35.38
2019-04-16T08:03:17.905Z,35.30
2019-04-16T08:08:48.738Z,35.17
2019-04-16T08:11:29.740Z,35.20
2019-04-16T08:14:14.601Z,35.13
2019-04-16T08:17:01.872Z,35.18
2019-04-16T08:22:33.076Z,35.16
2019-04-16T08:28:14.520Z,35.04
2019-04-16T08:31:12.193Z,35.07
2019-04-16T08:33:45.454Z,34.97
2019-04-16T08:36:38.495Z,35.04
2019-04-16T08:39:09.747Z,35.05
2019-04-16T08:41:52.096Z,35.05
2019-04-16T08:44:28.028Z,34.88
2019-04-16T08:47:24.006Z,34.95
2019-04-16T08:50:12.196Z,34.83
2019-04-16T08:55:47.043Z,34.95
2019-04-16T08:58:38.317Z,34.80
2019-04-16T09:07:12.745Z,34.63
2019-04-16T09:10:15.672Z,34.48
2019-04-16T09:13:03.442Z,34.44
2019-04-16T09:15:27.614Z,34.30
2019-04-16T09:27:51.075Z,33.67
2019-04-16T09:31:05.245Z,33.42
2019-04-16T09:33:16.073Z,33.07
2019-04-16T09:45:46.540Z,32.20
2019-04-16T09:48:21.820Z,32.00
2019-04-16T10:02:55.576Z,31.22
2019-04-16T10:05:26.506Z,31.26
2019-04-16T10:07:57.067Z,31.22
2019-04-16T10:10:43.254Z,31.11
2019-04-16T10:13:12.654Z,31.05
2019-04-16T10:15:43.993Z,31.51
2019-04-16T10:18:14.748Z,31.68
2019-04-16T10:20:45.463Z,31.24
2019-04-16T10:23:36.054Z,31.77
2019-04-16T10:26:14.196Z,31.88
2019-04-16T10:28:50.060Z,31.83
2019-04-16T10:34:14.395Z,31.75
2019-04-16T10:36:49.497Z,31.54
2019-04-16T10:39:37.759Z,31.38
2019-04-16T10:42:27.043Z,31.29
2019-04-16T10:45:35.213Z,31.25
2019-04-16T10:48:09.315Z,31.05
2019-04-16T10:51:06.445Z,31.04
2019-04-16T10:53:39.143Z,30.75
2019-04-16T10:56:30.461Z,30.82
2019-04-16T10:59:20.413Z,30.72
2019-04-16T11:02:03.426Z,30.53
2019-04-16T11:04:46.786Z,30.44
2019-04-16T11:07:24.030Z,30.33
2019-04-16T11:10:01.446Z,30.32
2019-04-16T11:12:49.496Z,30.20
2019-04-16T11:15:25.721Z,30.05
2019-04-16T11:18:02.810Z,30.03
2019-04-16T11:20:39.169Z,29.05
2019-04-16T11:23:14.175Z,29.20
2019-04-16T11:28:54.021Z,29.45
2019-04-16T11:31:38.227Z,29.41
2019-04-16T11:34:24.940Z,29.30
2019-04-16T11:37:07.367Z,29.23
2019-04-16T11:39:50.293Z,29.42
2019-04-16T11:42:21.200Z,29.64
2019-04-16T11:44:50.642Z,29.90
2019-04-16T11:47:22.399Z,30.56
2019-04-16T11:52:45.844Z,29.56
2019-04-16T11:55:15.119Z,29.68
2019-04-16T11:57:48.198Z,29.72
2019-04-16T12:00:40.013Z,29.71
2019-04-16T12:03:34.885Z,29.81
2019-04-16T12:09:44.281Z,28.54
2019-04-16T12:15:21.022Z,29.06
2019-04-16T12:18:16.679Z,29.25
2019-04-16T12:21:17.621Z,29.57
2019-04-16T12:23:57.084Z,30.05
2019-04-16T12:26:44.938Z,30.28
2019-04-16T12:29:32.239Z,30.49
2019-04-16T12:32:27.230Z,30.79
2019-04-16T12:35:01.957Z,31.04
2019-04-16T12:37:51.909Z,31.54
2019-04-16T12:40:29.653Z,31.62
2019-04-16T12:43:19.897Z,31.27
2019-04-16T12:46:10.127Z,31.07
2019-04-16T12:52:30.505Z,30.92
2019-04-16T12:55:03.572Z,30.68
2019-04-16T12:57:51.269Z,30.24
2019-04-16T13:00:38.910Z,30.27
2019-04-16T13:06:37.832Z,30.63
2019-04-16T13:26:28.655Z,31.45
2019-04-16T13:29:03.111Z,31.60
2019-04-16T13:31:39.851Z,31.65
2019-04-16T13:34:18.291Z,31.80
2019-04-16T13:37:02.627Z,31.89
2019-04-16T13:40:00.126Z,31.97
2019-04-16T13:42:43.251Z,32.02
2019-04-16T13:45:27.159Z,32.09
2019-04-16T13:48:16.040Z,32.16
2019-04-16T13:50:41.077Z,32.21
2019-04-16T13:53:28.776Z,32.28
2019-04-16T13:56:10.918Z,32.31
2019-04-16T13:58:51.574Z,32.31
2019-04-16T14:01:26.698Z,32.37
2019-04-16T14:03:57.204Z,32.46
2019-04-16T14:06:28.423Z,32.47
2019-04-16T14:09:01.593Z,32.49
2019-04-16T14:11:32.410Z,32.55
2019-04-16T14:14:07.571Z,32.55
2019-04-16T14:16:34.174Z,32.56
2019-04-16T14:19:06.161Z,32.54
2019-04-16T14:21:35.870Z,32.49
2019-04-16T14:24:06.172Z,32.57
2019-04-16T14:26:37.498Z,32.60
2019-04-16T14:29:07.373Z,32.58
2019-04-16T14:31:42.438Z,32.62
2019-04-16T14:34:25.217Z,32.67
2019-04-16T14:36:56.942Z,32.64
2019-04-16T14:39:42.728Z,32.58
2019-04-16T14:42:15.160Z,32.67
2019-04-16T14:44:48.818Z,32.81
2019-04-16T14:47:18.067Z,32.60
2019-04-16T14:49:47.780Z,32.72
2019-04-16T14:52:18.097Z,33.05
2019-04-16T14:54:48.913Z,33.17
2019-04-16T15:04:31.233Z,33.47
2019-04-16T15:06:57.192Z,33.66
2019-04-16T15:12:57.478Z,34.13
2019-04-16T15:15:28.295Z,34.26
2019-04-16T15:18:11.028Z,34.53
2019-04-16T15:20:54.154Z,34.39
2019-04-16T15:23:37.095Z,34.51
2019-04-16T15:26:10.993Z,34.66
2019-04-16T15:28:41.759Z,34.73
2019-04-16T15:31:14.948Z,34.88
2019-04-16T15:33:45.714Z,35.17
2019-04-16T15:36:19.534Z,35.37
2019-04-16T15:39:02.967Z,35.32
2019-04-16T15:41:49.833Z,35.24
2019-04-16T15:44:23.633Z,35.31
2019-04-16T15:46:58.705Z,35.59
2019-04-16T15:49:29.443Z,36.10
2019-04-16T15:52:15.463Z,36.49
2019-04-16T15:54:46.525Z,36.93
2019-04-16T15:57:35.047Z,37.14
2019-04-16T16:00:21.399Z,37.08
2019-04-16T16:03:10.592Z,37.12
2019-04-16T16:05:50.668Z,37.87
2019-04-16T16:08:21.466Z,38.61
2019-04-16T16:10:58.395Z,38.97
2019-04-16T16:13:27.877Z,38.97
2019-04-16T16:15:56.278Z,39.00
2019-04-16T16:18:25.342Z,38.98
2019-04-16T16:20:54.495Z,38.79
2019-04-16T16:23:23.630Z,38.83
2019-04-16T16:25:54.112Z,38.65
2019-04-16T16:28:23.564Z,38.59
2019-04-16T16:30:52.777Z,38.45
2019-04-16T16:33:21.954Z,38.37
2019-04-16T16:35:58.660Z,38.49
2019-04-16T16:38:22.286Z,38.47
2019-04-16T16:40:51.481Z,38.30
2019-04-16T16:43:20.602Z,38.22
2019-04-16T16:45:55.171Z,37.96
2019-04-16T16:48:25.971Z,37.79
2019-04-16T16:50:55.278Z,37.61
2019-04-16T16:53:31.380Z,37.51
2019-04-16T16:56:08.421Z,37.45
2019-04-16T16:58:41.925Z,37.44
2019-04-16T17:01:34.739Z,37.36
2019-04-16T17:04:04.067Z,37.28
2019-04-16T17:09:31.235Z,37.06
2019-04-16T17:12:03.817Z,36.96
2019-04-16T17:14:36.400Z,36.98
2019-04-16T17:17:14.156Z,36.92
2019-04-16T17:19:37.347Z,36.83
2019-04-16T17:22:06.537Z,36.78
2019-04-16T17:24:35.699Z,36.73
2019-04-16T17:27:05.482Z,36.66
2019-04-16T17:29:34.644Z,36.65
2019-04-16T17:32:03.916Z,36.64
2019-04-16T17:34:32.953Z,36.57
2019-04-16T17:37:02.066Z,36.54
2019-04-16T17:39:35.264Z,36.53
2019-04-16T17:42:08.007Z,36.38
2019-04-16T17:44:58.212Z,37.04
2019-04-16T17:47:45.443Z,36.68
2019-04-16T17:50:31.341Z,36.78
2019-04-16T17:53:21.700Z,36.95
2019-04-16T17:56:08.722Z,36.99
2019-04-16T17:58:48.288Z,37.31
2019-04-16T18:01:35.161Z,37.29
2019-04-16T18:04:10.467Z,37.32
2019-04-16T18:06:44.223Z,37.29
2019-04-16T18:12:43.069Z,37.36
2019-04-16T18:15:16.686Z,37.42
2019-04-16T18:18:03.658Z,37.48
2019-04-16T18:20:56.689Z,37.45
2019-04-16T18:23:21.646Z,37.74
2019-04-16T18:26:08.221Z,37.42
2019-04-16T18:28:44.919Z,37.08
2019-04-16T18:31:30.460Z,36.92
2019-04-16T18:34:01.227Z,37.06
2019-04-16T18:36:43.563Z,37.08
2019-04-16T18:39:29.741Z,37.28
2019-04-16T18:42:00.480Z,37.23
2019-04-16T18:44:34.301Z,37.19
2019-04-16T18:47:05.488Z,37.19
2019-04-16T18:49:36.623Z,37.19
2019-04-16T18:52:07.009Z,37.18
2019-04-16T18:54:36.340Z,37.39
2019-04-16T18:57:05.761Z,37.84
2019-04-16T18:59:34.878Z,38.17
2019-04-16T19:02:08.723Z,37.84
2019-04-16T19:04:36.567Z,37.42
2019-04-16T19:07:05.751Z,37.35
2019-04-16T19:09:34.872Z,36.86
2019-04-16T19:12:03.980Z,36.93
2019-04-16T19:14:36.477Z,37.11
2019-04-16T19:17:04.022Z,37.17
2019-04-16T19:19:33.124Z,37.13
2019-04-16T19:22:02.238Z,37.13
2019-04-16T19:24:31.369Z,37.17
2019-04-16T19:27:00.553Z,37.12
2019-04-16T19:29:29.665Z,37.22
2019-04-16T19:32:00.306Z,37.29
2019-04-16T19:34:29.416Z,37.37
2019-04-16T19:36:59.561Z,37.48
2019-04-16T19:39:29.410Z,37.70
2019-04-16T19:41:58.498Z,37.86
2019-04-16T19:44:27.609Z,37.90
2019-04-16T19:46:57.632Z,37.77
2019-04-16T19:49:26.745Z,38.03
2019-04-16T19:51:56.081Z,38.01
2019-04-16T19:54:24.522Z,37.99
2019-04-16T19:56:53.585Z,38.05
2019-04-16T19:59:22.695Z,38.47
2019-04-16T20:01:51.829Z,38.87
2019-04-16T20:04:20.936Z,39.05
2019-04-16T20:06:50.050Z,39.14
2019-04-16T20:09:19.161Z,39.37
2019-04-16T20:11:48.280Z,39.69
2019-04-16T20:14:17.389Z,39.92
2019-04-16T20:16:46.504Z,40.04
2019-04-16T20:19:15.686Z,40.09
2019-04-16T20:21:44.794Z,40.20
2019-04-16T20:24:13.907Z,40.42
2019-04-16T20:26:43.024Z,40.71
2019-04-16T20:29:12.141Z,40.09
2019-04-16T20:31:41.346Z,39.53
2019-04-16T20:34:12.417Z,39.32
2019-04-16T20:36:41.305Z,39.17
2019-04-16T20:39:10.423Z,39.00
2019-04-16T20:41:39.537Z,38.90
2019-04-16T20:44:09.502Z,38.77
2019-04-16T20:46:38.755Z,38.65
2019-04-16T20:49:10.605Z,38.57
2019-04-16T20:51:38.696Z,38.41
2019-04-16T20:54:12.157Z,38.31
2019-04-16T20:56:40.718Z,38.20
2019-04-16T20:59:09.492Z,38.10
2019-04-16T21:01:38.619Z,37.99
2019-04-16T21:04:07.731Z,37.91
2019-04-16T21:06:40.516Z,37.83
2019-04-16T21:09:08.062Z,37.74
2019-04-16T21:11:40.554Z,37.67
2019-04-16T21:14:07.236Z,37.63
2019-04-16T21:16:36.368Z,37.59
2019-04-16T21:19:05.475Z,37.56
2019-04-16T21:21:37.896Z,37.50
2019-04-16T21:24:07.807Z,37.45
2019-04-16T21:26:36.266Z,37.40
2019-04-16T21:29:07.025Z,37.38
2019-04-16T21:31:37.780Z,37.35
2019-04-16T21:34:29.741Z,37.32
2019-04-16T21:37:15.123Z,37.31
2019-04-16T21:39:57.888Z,37.30
2019-04-16T21:42:27.007Z,37.30
2019-04-16T21:44:56.406Z,37.25
2019-04-16T21:47:24.879Z,37.25
2019-04-16T21:49:54.231Z,37.22
2019-04-16T21:52:23.833Z,37.19
2019-04-16T21:54:53.045Z,37.22
2019-04-16T21:57:22.164Z,37.21
2019-04-16T21:59:56.965Z,37.19
2019-04-16T22:02:24.012Z,37.21
2019-04-16T22:04:53.131Z,37.17
2019-04-16T22:07:24.575Z,37.18
2019-04-16T22:09:53.147Z,37.23
2019-04-16T22:12:22.271Z,37.25
2019-04-16T22:14:54.283Z,37.32
2019-04-16T22:17:22.215Z,37.37
2019-04-16T22:19:54.405Z,37.37
2019-04-16T22:22:22.179Z,37.39
2019-04-16T22:24:51.838Z,37.38
2019-04-16T22:27:22.145Z,37.41
2019-04-16T22:29:51.261Z,37.44
2019-04-16T22:32:20.368Z,37.47
2019-04-16T22:34:49.495Z,37.51
2019-04-16T22:37:18.609Z,37.58
2019-04-16T22:39:51.179Z,37.53
2019-04-16T22:42:29.778Z,37.70
2019-04-16T22:45:08.992Z,37.70
2019-04-16T22:47:39.838Z,37.75
2019-04-16T22:50:16.466Z,37.83
2019-04-16T22:52:41.665Z,37.90
2019-04-16T22:55:10.874Z,37.96
2019-04-16T22:57:39.980Z,38.01
2019-04-16T23:00:12.891Z,38.03
2019-04-16T23:02:41.643Z,38.09
2019-04-16T23:05:10.754Z,38.17
2019-04-16T23:07:40.368Z,38.24
2019-04-16T23:10:08.731Z,38.26
2019-04-16T23:12:37.792Z,38.28
2019-04-16T23:15:08.707Z,38.36
2019-04-16T23:17:37.836Z,38.41
2019-04-16T23:20:06.944Z,38.50
2019-04-16T23:22:36.054Z,38.55
2019-04-16T23:25:05.820Z,38.56
2019-04-16T23:27:37.458Z,38.62
2019-04-16T23:30:06.645Z,38.66
2019-04-16T23:32:35.753Z,38.69
2019-04-16T23:35:09.475Z,38.78
2019-04-16T23:37:37.159Z,38.85
2019-04-16T23:40:10.343Z,38.86
2019-04-16T23:42:39.349Z,38.87
2019-04-16T23:45:10.350Z,38.91
2019-04-16T23:47:50.036Z,38.95
2019-04-16T23:50:44.688Z,38.96
2019-04-16T23:53:13.771Z,39.04
2019-04-16T23:56:00.561Z,39.16
2019-04-16T23:58:31.330Z,39.15
